createdAt,value
2023-03-25T00:01:55.362Z,6.90
2023-03-25T00:04:27.276Z,6.90
2023-03-25T00:06:57.457Z,6.90
2023-03-25T00:09:25.284Z,6.80
2023-03-25T00:11:54.129Z,6.90
2023-03-25T00:14:21.935Z,6.80
2023-03-25T00:16:53.253Z,6.90
2023-03-25T00:19:22.146Z,6.80
2023-03-25T00:21:52.108Z,6.40
2023-03-25T00:24:21.381Z,6.00
2023-03-25T00:26:49.195Z,5.50
2023-03-25T00:29:17.845Z,5.50
2023-03-25T00:31:45.688Z,5.50
2023-03-25T00:34:14.477Z,5.40
2023-03-25T00:36:43.783Z,5.40
2023-03-25T00:39:12.144Z,5.40
2023-03-25T00:41:42.061Z,5.40
2023-03-25T00:44:12.421Z,5.40
2023-03-25T00:46:40.329Z,5.40
2023-03-25T00:49:08.209Z,5.40
2023-03-25T00:51:36.022Z,5.40
2023-03-25T00:54:22.267Z,5.40
2023-03-25T00:56:53.519Z,5.40
2023-03-25T00:59:21.934Z,5.40
2023-03-25T01:01:53.144Z,5.40
2023-03-25T01:04:21.052Z,5.40
2023-03-25T01:06:51.762Z,5.40
2023-03-25T01:09:21.334Z,5.40
2023-03-25T01:11:50.962Z,5.30
2023-03-25T01:14:24.127Z,5.40
2023-03-25T01:16:52.166Z,5.30
2023-03-25T01:19:20.010Z,5.30
2023-03-25T01:21:47.826Z,5.40
2023-03-25T01:24:16.322Z,5.40
2023-03-25T01:26:45.698Z,5.40
2023-03-25T01:29:16.986Z,5.40
2023-03-25T01:31:45.528Z,5.40
2023-03-25T01:34:14.200Z,5.40
2023-03-25T01:36:46.487Z,5.50
2023-03-25T01:39:16.634Z,5.50
2023-03-25T01:41:50.118Z,5.50
2023-03-25T01:44:57.300Z,5.40
2023-03-25T01:47:27.671Z,5.30
2023-03-25T01:49:55.610Z,4.90
2023-03-25T01:52:27.625Z,4.70
2023-03-25T01:54:58.942Z,4.70
2023-03-25T01:57:27.440Z,4.50
2023-03-25T01:59:56.314Z,4.40
2023-03-25T02:02:36.627Z,4.40
2023-03-25T02:05:10.768Z,4.30
2023-03-25T02:07:42.660Z,4.20
2023-03-25T02:10:13.006Z,4.20
2023-03-25T02:12:41.576Z,4.20
2023-03-25T02:15:11.777Z,4.10
2023-03-25T02:17:54.337Z,4.10
2023-03-25T02:20:54.305Z,4.00
2023-03-25T02:24:04.472Z,4.00
2023-03-25T02:27:01.268Z,3.90
2023-03-25T02:29:43.129Z,4.00
2023-03-25T02:32:26.158Z,4.00
2023-03-25T02:35:15.573Z,4.00
2023-03-25T02:38:19.126Z,4.10
2023-03-25T02:40:55.622Z,4.10
2023-03-25T02:43:28.968Z,4.20
2023-03-25T02:46:00.478Z,4.20
2023-03-25T02:48:33.259Z,4.20
2023-03-25T02:51:05.262Z,4.20
2023-03-25T02:53:37.347Z,4.30
2023-03-25T02:56:10.955Z,4.40
2023-03-25T02:58:40.941Z,4.50
2023-03-25T03:01:10.100Z,4.60
2023-03-25T03:03:38.235Z,4.50
2023-03-25T03:06:07.665Z,4.60
2023-03-25T03:08:59.892Z,4.60
2023-03-25T03:11:32.015Z,4.60
2023-03-25T03:14:19.009Z,4.60
2023-03-25T03:16:55.957Z,4.60
2023-03-25T03:19:38.257Z,4.70
2023-03-25T03:22:21.657Z,4.70
2023-03-25T03:24:56.980Z,4.70
2023-03-25T03:27:33.896Z,4.80
2023-03-25T03:30:08.756Z,4.80
2023-03-25T03:32:43.438Z,4.80
2023-03-25T03:35:17.994Z,4.80
2023-03-25T03:37:51.422Z,4.80
2023-03-25T03:40:23.634Z,4.90
2023-03-25T03:42:56.838Z,4.90
2023-03-25T03:45:28.960Z,4.90
2023-03-25T03:48:01.682Z,4.90
2023-03-25T03:50:32.592Z,5.00
2023-03-25T03:53:07.247Z,5.00
2023-03-25T03:55:41.911Z,5.00
2023-03-25T03:58:15.214Z,5.00
2023-03-25T04:00:50.702Z,4.90
2023-03-25T04:03:24.443Z,4.80
2023-03-25T04:05:58.811Z,4.90
2023-03-25T04:08:30.836Z,4.90
2023-03-25T04:11:05.515Z,4.80
2023-03-25T04:13:37.957Z,4.80
2023-03-25T04:16:07.313Z,4.80
2023-03-25T04:18:35.242Z,4.70
2023-03-25T04:21:03.998Z,4.70
2023-03-25T04:23:31.925Z,4.60
2023-03-25T04:26:02.779Z,4.60
2023-03-25T04:28:31.727Z,4.50
2023-03-25T04:31:00.605Z,4.70
2023-03-25T04:33:32.132Z,4.60
2023-03-25T04:36:02.016Z,4.60
2023-03-25T04:38:30.441Z,4.60
2023-03-25T04:41:00.420Z,4.60
2023-03-25T04:43:29.613Z,4.60
2023-03-25T04:45:57.676Z,4.60
2023-03-25T04:48:30.195Z,4.60
2023-03-25T04:50:59.019Z,4.60
2023-03-25T04:53:27.716Z,4.60
2023-03-25T04:55:55.974Z,4.60
2023-03-25T04:58:23.864Z,4.70
2023-03-25T05:00:53.961Z,4.60
2023-03-25T05:03:24.032Z,4.70
2023-03-25T05:05:52.794Z,4.60
2023-03-25T05:08:21.691Z,4.60
2023-03-25T05:10:50.442Z,4.60
2023-03-25T05:13:18.243Z,4.60
2023-03-25T05:15:46.144Z,4.60
2023-03-25T05:18:17.433Z,4.60
2023-03-25T05:20:51.103Z,4.60
2023-03-25T05:23:19.169Z,4.50
2023-03-25T05:25:47.746Z,4.50
2023-03-25T05:28:16.173Z,4.50
2023-03-25T05:30:46.165Z,4.50
2023-03-25T05:33:17.151Z,4.50
2023-03-25T05:35:45.876Z,4.60
2023-03-25T05:38:18.222Z,4.80
2023-03-25T05:40:47.478Z,4.70
2023-03-25T05:43:15.789Z,4.80
2023-03-25T05:45:45.085Z,4.80
2023-03-25T05:48:12.992Z,4.90
2023-03-25T05:50:42.838Z,4.90
2023-03-25T05:53:13.501Z,5.00
2023-03-25T05:55:41.426Z,5.00
2023-03-25T05:58:09.297Z,5.00
2023-03-25T06:00:37.462Z,5.00
2023-03-25T06:03:08.066Z,5.10
2023-03-25T06:05:36.629Z,5.10
2023-03-25T06:08:05.851Z,5.10
2023-03-25T06:10:34.407Z,5.00
2023-03-25T06:13:02.231Z,5.10
2023-03-25T06:15:39.019Z,5.10
2023-03-25T06:18:07.426Z,5.10
2023-03-25T06:20:35.474Z,5.10
2023-03-25T06:23:03.312Z,5.00
2023-03-25T06:25:32.476Z,4.90
2023-03-25T06:28:03.473Z,4.90
2023-03-25T06:30:32.024Z,4.90
2023-03-25T06:33:02.871Z,5.00
2023-03-25T06:35:30.832Z,5.10
2023-03-25T06:37:58.681Z,5.10
2023-03-25T06:40:26.521Z,5.10
2023-03-25T06:42:55.681Z,5.10
2023-03-25T06:45:23.484Z,5.20
2023-03-25T06:47:51.264Z,5.20
2023-03-25T06:50:19.215Z,5.20
2023-03-25T06:52:47.035Z,5.00
2023-03-25T06:55:16.119Z,5.00
2023-03-25T06:57:44.025Z,5.00
2023-03-25T07:00:14.238Z,5.00
2023-03-25T07:02:42.158Z,5.00
2023-03-25T07:05:10.593Z,5.00
2023-03-25T07:07:38.498Z,5.00
2023-03-25T07:10:07.481Z,5.10
2023-03-25T07:12:35.994Z,5.20
2023-03-25T07:15:03.930Z,5.30
2023-03-25T07:17:33.174Z,5.50
2023-03-25T07:20:00.955Z,5.60
2023-03-25T07:22:28.726Z,5.70
2023-03-25T07:24:58.413Z,5.80
2023-03-25T07:27:26.591Z,5.90
2023-03-25T07:29:55.596Z,6.00
2023-03-25T07:32:23.467Z,6.10
2023-03-25T07:34:52.631Z,6.10
2023-03-25T07:37:20.636Z,6.00
2023-03-25T07:39:48.418Z,5.80
2023-03-25T07:42:16.187Z,6.10
2023-03-25T07:44:44.028Z,6.20
2023-03-25T07:47:11.891Z,6.30
2023-03-25T07:49:40.866Z,6.50
2023-03-25T07:52:10.040Z,6.60
2023-03-25T07:54:38.366Z,6.90
2023-03-25T07:57:06.239Z,7.10
2023-03-25T07:59:34.096Z,7.00
2023-03-25T08:02:02.588Z,6.90
2023-03-25T08:04:30.523Z,6.80
2023-03-25T08:06:58.357Z,6.60
2023-03-25T08:09:27.492Z,6.50
2023-03-25T08:11:55.397Z,6.40
2023-03-25T08:14:23.598Z,6.40
2023-03-25T08:16:51.620Z,6.30
2023-03-25T08:19:19.529Z,6.30
2023-03-25T08:21:47.353Z,6.40
2023-03-25T08:24:15.413Z,6.60
2023-03-25T08:26:44.698Z,6.40
2023-03-25T08:29:12.550Z,6.40
2023-03-25T08:31:40.501Z,6.40
2023-03-25T08:34:08.398Z,6.40
2023-03-25T08:36:39.520Z,6.40
2023-03-25T08:39:11.714Z,6.70
2023-03-25T08:41:39.914Z,7.00
2023-03-25T08:44:09.245Z,7.30
2023-03-25T08:46:37.613Z,7.60
2023-03-25T08:49:06.410Z,7.70
2023-03-25T08:51:34.263Z,7.20
2023-03-25T08:54:02.127Z,7.10
2023-03-25T08:56:30.328Z,7.50
2023-03-25T08:58:58.133Z,7.40
2023-03-25T09:01:27.369Z,7.30
2023-03-25T09:03:55.836Z,7.40
2023-03-25T09:06:23.698Z,7.90
2023-03-25T09:08:52.358Z,8.00
2023-03-25T09:11:34.163Z,7.50
2023-03-25T09:14:04.925Z,7.30
2023-03-25T09:16:34.758Z,7.30
2023-03-25T09:19:02.995Z,7.10
2023-03-25T09:21:31.161Z,7.30
2023-03-25T09:23:59.047Z,7.40
2023-03-25T09:26:27.108Z,7.50
2023-03-25T09:28:56.308Z,7.30
2023-03-25T09:31:24.216Z,7.10
2023-03-25T09:33:53.493Z,7.00
2023-03-25T09:36:21.351Z,6.60
2023-03-25T09:38:49.182Z,7.10
2023-03-25T09:41:28.812Z,7.50
2023-03-25T09:44:06.448Z,7.80
2023-03-25T09:46:34.497Z,7.80
2023-03-25T09:49:04.080Z,7.40
2023-03-25T09:51:36.872Z,7.20
2023-03-25T09:54:14.009Z,7.40
2023-03-25T09:56:44.557Z,7.30
2023-03-25T09:59:16.735Z,7.40
2023-03-25T10:01:50.858Z,7.40
2023-03-25T10:04:41.044Z,7.70
2023-03-25T10:07:24.084Z,8.20
2023-03-25T10:09:59.034Z,8.00
2023-03-25T10:12:35.785Z,8.10
2023-03-25T10:15:15.064Z,8.20
2023-03-25T10:17:54.422Z,8.60
2023-03-25T10:20:43.002Z,9.20
2023-03-25T10:23:19.338Z,9.10
2023-03-25T10:25:53.340Z,8.60
2023-03-25T10:28:28.167Z,8.60
2023-03-25T10:30:56.658Z,8.80
2023-03-25T10:33:34.338Z,8.40
2023-03-25T10:36:04.938Z,8.40
2023-03-25T10:38:34.468Z,8.50
2023-03-25T10:41:15.525Z,8.70
2023-03-25T10:43:44.602Z,8.70
2023-03-25T10:46:19.363Z,9.00
2023-03-25T10:48:48.000Z,9.30
2023-03-25T10:51:19.392Z,9.20
2023-03-25T10:53:49.955Z,9.30
2023-03-25T10:56:20.503Z,9.40
2023-03-25T10:58:52.264Z,9.20
2023-03-25T11:01:22.350Z,9.20
2023-03-25T11:03:52.568Z,9.20
2023-03-25T11:06:26.759Z,9.20
2023-03-25T11:08:59.313Z,9.10
2023-03-25T11:11:33.596Z,8.90
2023-03-25T11:14:02.406Z,9.10
2023-03-25T11:16:33.606Z,9.20
2023-03-25T11:19:03.152Z,9.60
2023-03-25T11:21:34.478Z,9.80
2023-03-25T11:24:02.920Z,9.70
2023-03-25T11:26:39.171Z,9.90
2023-03-25T11:29:10.274Z,10.00
2023-03-25T11:31:39.563Z,10.20
2023-03-25T11:34:18.466Z,10.10
2023-03-25T11:36:55.669Z,9.90
2023-03-25T11:39:31.106Z,10.60
2023-03-25T11:41:59.859Z,10.80
2023-03-25T11:44:30.454Z,9.90
2023-03-25T11:47:01.310Z,9.60
2023-03-25T11:49:34.820Z,9.70
2023-03-25T11:52:08.347Z,9.90
2023-03-25T11:54:38.127Z,10.10
2023-03-25T11:57:12.239Z,10.00
2023-03-25T11:59:44.860Z,9.70
2023-03-25T12:02:24.026Z,9.60
2023-03-25T12:04:59.912Z,10.00
2023-03-25T12:07:29.813Z,10.10
2023-03-25T12:09:59.544Z,9.80
2023-03-25T12:12:36.735Z,9.50
2023-03-25T12:15:19.065Z,9.40
2023-03-25T12:17:57.628Z,9.50
2023-03-25T12:20:30.552Z,9.40
2023-03-25T12:23:16.661Z,9.30
2023-03-25T12:25:55.282Z,9.20
2023-03-25T12:28:40.516Z,9.50
2023-03-25T12:31:21.523Z,9.50
2023-03-25T12:33:59.462Z,9.50
2023-03-25T12:36:40.550Z,9.40
2023-03-25T12:39:42.652Z,9.40
2023-03-25T12:42:22.747Z,9.70
2023-03-25T12:45:04.528Z,9.70
2023-03-25T12:47:36.886Z,10.10
2023-03-25T12:50:17.736Z,10.90
2023-03-25T12:52:57.968Z,10.60
2023-03-25T12:55:54.286Z,10.70
2023-03-25T12:58:44.638Z,10.70
2023-03-25T13:01:21.572Z,10.30
2023-03-25T13:04:12.504Z,10.00
2023-03-25T13:06:44.720Z,9.80
2023-03-25T13:09:17.437Z,9.90
2023-03-25T13:11:51.587Z,10.50
2023-03-25T13:14:24.941Z,10.60
2023-03-25T13:16:56.229Z,10.70
2023-03-25T13:19:27.514Z,10.80
2023-03-25T13:21:58.804Z,10.90
2023-03-25T13:24:39.055Z,10.70
2023-03-25T13:27:08.811Z,11.00
2023-03-25T13:29:41.097Z,11.30
2023-03-25T13:32:15.000Z,11.10
2023-03-25T13:34:50.126Z,11.00
2023-03-25T13:37:22.911Z,11.00
2023-03-25T13:40:11.950Z,11.00
2023-03-25T13:42:49.383Z,11.00
2023-03-25T13:45:19.271Z,10.90
2023-03-25T13:47:53.148Z,10.60
2023-03-25T13:50:26.645Z,10.40
2023-03-25T13:52:59.446Z,10.50
2023-03-25T13:55:33.860Z,11.00
2023-03-25T13:58:40.300Z,11.60
2023-03-25T14:01:30.976Z,11.90
2023-03-25T14:04:30.778Z,11.60
2023-03-25T14:07:12.456Z,11.40
2023-03-25T14:10:12.981Z,10.60
2023-03-25T14:12:44.434Z,9.70
2023-03-25T14:15:18.045Z,9.40
2023-03-25T14:17:47.043Z,8.70
2023-03-25T14:20:24.348Z,8.80
2023-03-25T14:22:57.335Z,8.70
2023-03-25T14:25:33.154Z,8.80
2023-03-25T14:28:02.291Z,9.20
2023-03-25T14:30:33.939Z,9.20
2023-03-25T14:33:04.052Z,9.10
2023-03-25T14:35:59.080Z,9.10
2023-03-25T14:38:52.606Z,9.00
2023-03-25T14:41:54.074Z,9.20
2023-03-25T14:44:22.154Z,9.30
2023-03-25T14:47:02.248Z,9.50
2023-03-25T14:49:50.232Z,9.70
2023-03-25T14:52:22.550Z,9.80
2023-03-25T14:54:53.832Z,10.00
2023-03-25T14:57:24.811Z,10.10
2023-03-25T14:59:57.784Z,10.10
2023-03-25T15:02:29.479Z,10.10
2023-03-25T15:05:00.240Z,10.40
2023-03-25T15:07:44.238Z,10.10
2023-03-25T15:10:23.249Z,9.90
2023-03-25T15:12:54.138Z,9.70
2023-03-25T15:15:31.586Z,9.60
2023-03-25T15:18:01.633Z,9.50
2023-03-25T15:20:38.850Z,9.40
2023-03-25T15:23:34.352Z,9.30
2023-03-25T15:26:04.908Z,9.20
2023-03-25T15:28:48.005Z,9.10
2023-03-25T15:31:29.061Z,8.70
2023-03-25T15:34:15.339Z,8.60
2023-03-25T15:37:06.241Z,8.30
2023-03-25T15:39:48.842Z,8.30
2023-03-25T15:42:51.462Z,8.70
2023-03-25T15:45:36.041Z,9.00
2023-03-25T15:48:32.475Z,8.90
2023-03-25T15:51:32.288Z,8.60
2023-03-25T15:54:34.032Z,8.70
2023-03-25T15:57:09.425Z,8.80
2023-03-25T15:59:43.684Z,8.80
2023-03-25T16:02:27.619Z,8.80
2023-03-25T16:04:56.374Z,8.90
2023-03-25T16:07:30.511Z,9.10
2023-03-25T16:10:06.944Z,9.10
2023-03-25T16:12:34.792Z,9.30
2023-03-25T16:15:07.050Z,9.30
2023-03-25T16:17:35.872Z,9.40
2023-03-25T16:20:07.033Z,9.40
2023-03-25T16:22:37.750Z,9.50
2023-03-25T16:25:09.386Z,9.50
2023-03-25T16:27:42.928Z,9.40
2023-03-25T16:30:23.020Z,9.40
2023-03-25T16:32:51.809Z,9.40
2023-03-25T16:35:24.803Z,9.30
2023-03-25T16:37:57.738Z,9.30
2023-03-25T16:40:28.999Z,9.20
2023-03-25T16:43:04.441Z,9.30
2023-03-25T16:45:32.812Z,9.30
2023-03-25T16:48:07.222Z,9.30
2023-03-25T16:50:36.312Z,9.20
2023-03-25T16:53:06.848Z,9.10
2023-03-25T16:55:47.203Z,9.00
2023-03-25T16:58:19.221Z,9.00
2023-03-25T17:00:50.034Z,8.80
2023-03-25T17:03:39.367Z,8.80
2023-03-25T17:06:19.437Z,8.80
2023-03-25T17:08:53.958Z,8.70
2023-03-25T17:11:23.602Z,8.60
2023-03-25T17:13:54.802Z,8.50
2023-03-25T17:16:23.682Z,8.40
2023-03-25T17:18:53.812Z,8.30
2023-03-25T17:21:26.690Z,8.20
2023-03-25T17:23:58.232Z,8.10
2023-03-25T17:26:28.204Z,8.10
2023-03-25T17:29:02.139Z,8.10
2023-03-25T17:31:34.819Z,8.00
2023-03-25T17:34:06.497Z,7.90
2023-03-25T17:36:36.757Z,7.80
2023-03-25T17:39:14.209Z,7.80
2023-03-25T17:41:42.196Z,7.80
2023-03-25T17:44:15.988Z,7.70
2023-03-25T17:46:44.730Z,7.70
2023-03-25T17:49:16.649Z,7.80
2023-03-25T17:51:45.190Z,7.90
2023-03-25T17:54:15.419Z,7.90
2023-03-25T17:56:43.723Z,7.90
2023-03-25T17:59:19.847Z,7.90
2023-03-25T18:01:50.059Z,7.90
2023-03-25T18:04:19.824Z,7.90
2023-03-25T18:06:47.988Z,7.90
2023-03-25T18:09:19.719Z,7.80
2023-03-25T18:11:49.952Z,7.90
2023-03-25T18:14:17.922Z,7.90
2023-03-25T18:16:46.051Z,7.90
2023-03-25T18:19:16.569Z,8.00
2023-03-25T18:21:44.786Z,7.90
2023-03-25T18:24:13.486Z,7.30
2023-03-25T18:26:44.494Z,6.80
2023-03-25T18:29:17.684Z,6.50
2023-03-25T18:31:45.541Z,6.40
2023-03-25T18:34:14.265Z,6.50
2023-03-25T18:36:43.111Z,6.50
2023-03-25T18:39:14.281Z,6.50
2023-03-25T18:41:44.997Z,6.50
2023-03-25T18:44:13.313Z,6.50
2023-03-25T18:46:41.683Z,6.50
2023-03-25T18:49:13.398Z,6.50
2023-03-25T18:51:41.233Z,6.60
2023-03-25T18:54:09.438Z,6.60
2023-03-25T18:56:37.952Z,6.60
2023-03-25T18:59:07.361Z,6.60
2023-03-25T19:01:35.477Z,6.60
2023-03-25T19:04:03.411Z,6.50
2023-03-25T19:06:32.083Z,6.50
2023-03-25T19:09:00.034Z,6.40
2023-03-25T19:11:28.337Z,6.40
2023-03-25T19:13:56.941Z,6.30
2023-03-25T19:16:26.186Z,6.20
2023-03-25T19:18:54.023Z,6.20
2023-03-25T19:21:21.879Z,6.10
2023-03-25T19:23:49.791Z,6.10
2023-03-25T19:26:17.606Z,6.20
2023-03-25T19:28:45.394Z,6.10
2023-03-25T19:31:15.573Z,6.10
2023-03-25T19:33:44.965Z,6.10
2023-03-25T19:36:15.761Z,6.20
2023-03-25T19:38:43.815Z,6.30
2023-03-25T19:41:14.166Z,6.40
2023-03-25T19:43:42.246Z,6.40
2023-03-25T19:46:10.314Z,6.40
2023-03-25T19:48:38.257Z,6.40
2023-03-25T19:51:07.773Z,6.50
2023-03-25T19:53:35.713Z,6.40
2023-03-25T19:56:04.164Z,6.50
2023-03-25T19:58:32.639Z,6.40
2023-03-25T20:01:00.520Z,6.40
2023-03-25T20:03:31.324Z,6.40
2023-03-25T20:06:01.531Z,6.40
2023-03-25T20:08:31.916Z,6.50
2023-03-25T20:11:01.020Z,6.50
2023-03-25T20:13:29.033Z,6.70
2023-03-25T20:15:56.854Z,6.80
2023-03-25T20:18:24.659Z,6.70
2023-03-25T20:20:52.677Z,6.60
2023-03-25T20:23:20.614Z,6.50
2023-03-25T20:25:51.154Z,6.50
2023-03-25T20:28:19.165Z,6.50
2023-03-25T20:30:47.209Z,6.50
2023-03-25T20:33:15.117Z,6.50
2023-03-25T20:35:43.886Z,6.50
2023-03-25T20:38:14.148Z,6.60
2023-03-25T20:40:45.104Z,6.50
2023-03-25T20:43:15.113Z,6.50
2023-03-25T20:45:43.870Z,6.60
2023-03-25T20:48:11.785Z,6.80
2023-03-25T20:50:39.686Z,6.90
2023-03-25T20:53:07.497Z,7.00
2023-03-25T20:55:35.728Z,7.00
2023-03-25T20:58:03.897Z,7.00
2023-03-25T21:00:34.156Z,7.00
2023-03-25T21:03:03.128Z,7.00
2023-03-25T21:05:31.252Z,6.90
2023-03-25T21:07:59.090Z,6.80
2023-03-25T21:10:27.255Z,6.70
2023-03-25T21:12:55.109Z,6.50
2023-03-25T21:15:23.064Z,6.50
2023-03-25T21:17:52.178Z,6.30
2023-03-25T21:20:21.923Z,6.00
2023-03-25T21:22:50.893Z,5.90
2023-03-25T21:25:19.093Z,5.80
2023-03-25T21:27:46.990Z,5.80
2023-03-25T21:30:15.835Z,5.70
2023-03-25T21:32:43.937Z,5.70
2023-03-25T21:35:13.189Z,5.60
2023-03-25T21:37:41.011Z,5.60
2023-03-25T21:40:11.567Z,5.60
2023-03-25T21:42:41.263Z,5.50
2023-03-25T21:45:10.721Z,5.40
2023-03-25T21:47:38.566Z,5.40
2023-03-25T21:50:09.994Z,5.40
2023-03-25T21:52:43.083Z,5.30
2023-03-25T21:55:12.548Z,5.20
2023-03-25T21:57:41.997Z,5.20
2023-03-25T22:00:14.266Z,5.10
2023-03-25T22:02:43.819Z,5.10
2023-03-25T22:05:12.410Z,5.10
2023-03-25T22:07:42.082Z,5.10
2023-03-25T22:10:11.499Z,5.20
2023-03-25T22:12:39.671Z,5.40
2023-03-25T22:15:09.134Z,5.50
2023-03-25T22:17:36.954Z,5.40
2023-03-25T22:20:06.617Z,5.40
2023-03-25T22:22:34.436Z,5.40
2023-03-25T22:25:04.128Z,5.40
2023-03-25T22:27:32.059Z,5.30
2023-03-25T22:30:01.241Z,5.30
2023-03-25T22:32:29.314Z,5.20
2023-03-25T22:34:57.121Z,5.30
2023-03-25T22:37:24.948Z,5.20
2023-03-25T22:39:52.736Z,5.20
2023-03-25T22:42:21.967Z,5.20
2023-03-25T22:44:49.809Z,5.20
2023-03-25T22:47:17.644Z,5.10
2023-03-25T22:49:45.792Z,5.10
2023-03-25T22:52:13.585Z,5.10
2023-03-25T22:54:41.377Z,5.00
2023-03-25T22:57:09.220Z,5.00
2023-03-25T22:59:39.183Z,5.00
2023-03-25T23:02:07.742Z,5.00
2023-03-25T23:04:35.642Z,4.90
2023-03-25T23:07:08.496Z,4.90
2023-03-25T23:09:44.110Z,4.90
2023-03-25T23:12:13.713Z,5.00
2023-03-25T23:14:48.355Z,4.90
2023-03-25T23:17:16.601Z,5.00
2023-03-25T23:19:45.416Z,5.10
2023-03-25T23:22:13.270Z,5.10
2023-03-25T23:24:41.309Z,5.00
2023-03-25T23:27:11.516Z,5.10
2023-03-25T23:29:40.049Z,5.10
2023-03-25T23:32:11.273Z,5.10
2023-03-25T23:34:40.234Z,5.00
2023-03-25T23:37:09.226Z,5.10
2023-03-25T23:39:37.315Z,5.20
2023-03-25T23:42:05.247Z,5.20
2023-03-25T23:44:34.166Z,5.30
2023-03-25T23:47:02.130Z,5.30
2023-03-25T23:49:33.225Z,5.20
2023-03-25T23:52:01.171Z,5.30
2023-03-25T23:54:29.127Z,5.30
2023-03-25T23:56:57.000Z,5.30
2023-03-25T23:59:24.918Z,5.40
